Time;durP1;ratioP1;P1;durP2;ratioP2;P2;SDS_P1;SDS_P2;PMS_P1;PMS_P2;Temp;Humidity;BMP_temperature;BMP_pressure;BME280_temperature;BME280_humidity;BME280_pressure;Samples;Min_cycle;Max_cycle;Signal;HPM_P1;HPM_P2
2023/09/25 04:00:46;;;;;;;2.27;2.00;;;8.60;97.30;;;;;;6040351;23;20496;31
2023/09/25 04:03:11;;;;;;;1.90;1.80;;;8.50;97.30;;;;;;4910788;29;20470;-86
2023/09/25 04:05:37;;;;;;;1.50;1.40;;;8.50;97.30;;;;;;4912717;29;20966;-86
2023/09/25 04:08:03;;;;;;;3.10;2.97;;;8.50;97.30;;;;;;4913000;29;20750;-85
2023/09/25 04:10:30;;;;;;;2.80;2.60;;;8.40;97.30;;;;;;4912977;29;20299;-85
2023/09/25 04:12:56;;;;;;;2.20;1.30;;;8.40;97.30;;;;;;4913058;29;20508;-85
2023/09/25 04:15:24;;;;;;;5.90;2.60;;;8.30;97.30;;;;;;4913064;29;20798;-85
2023/09/25 04:17:52;;;;;;;1.83;1.67;;;8.30;97.30;;;;;;4905305;29;20204;-86
2023/09/25 04:20:28;;;;;;;1.73;1.63;;;8.30;97.30;;;;;;4912029;29;20428;-85
2023/09/25 04:22:56;;;;;;;1.40;1.30;;;8.30;97.30;;;;;;4908876;29;20434;-85
2023/09/25 04:25:22;;;;;;;1.63;1.40;;;8.30;97.30;;;;;;4912923;29;20425;-85
2023/09/25 04:27:50;;;;;;;1.30;1.20;;;8.30;97.30;;;;;;4912969;29;20437;-85
2023/09/25 04:30:17;;;;;;;3.67;2.50;;;8.20;97.30;;;;;;4912876;29;20421;-85
2023/09/25 04:32:44;;;;;;;1.10;1.00;;;8.20;97.30;;;;;;4903962;29;20879;-85
2023/09/25 04:35:12;;;;;;;4.80;1.83;;;8.20;97.30;;;;;;4910816;29;20444;-85
2023/09/25 04:37:42;;;;;;;2.27;1.30;;;8.20;97.30;;;;;;4922515;29;20796;-86
2023/09/25 04:40:14;;;;;;;1.60;1.50;;;8.20;97.30;;;;;;4913318;29;20409;-85
2023/09/25 04:42:41;;;;;;;3.90;2.10;;;8.10;97.30;;;;;;4924005;29;20437;-86
2023/09/25 04:45:12;;;;;;;2.40;1.43;;;8.10;97.30;;;;;;4916727;29;20416;-85
2023/09/25 04:47:41;;;;;;;2.83;2.40;;;8.10;97.30;;;;;;4912386;29;20464;-85
2023/09/25 04:50:08;;;;;;;1.60;1.50;;;8.10;97.30;;;;;;4913009;29;20453;-85
2023/09/25 04:52:34;;;;;;;1.70;1.60;;;8.00;97.30;;;;;;4916184;29;20940;-85
2023/09/25 04:55:03;;;;;;;1.20;1.10;;;8.00;97.30;;;;;;4917106;29;20432;-86
2023/09/25 04:57:29;;;;;;;2.73;2.53;;;8.00;97.30;;;;;;4916088;29;20435;-84
2023/09/25 04:59:54;;;;;;;1.63;1.57;;;8.00;97.30;;;;;;4914135;29;20425;-85
2023/09/25 05:02:20;;;;;;;1.83;1.70;;;8.00;97.30;;;;;;4915452;29;20749;-84
2023/09/25 05:04:45;;;;;;;1.37;1.27;;;8.00;97.30;;;;;;4918334;29;20192;-84
2023/09/25 05:07:11;;;;;;;1.87;1.53;;;8.00;97.30;;;;;;4914996;29;20191;-85
2023/09/25 05:09:36;;;;;;;1.57;1.47;;;8.00;97.30;;;;;;4909846;29;20231;-85
2023/09/25 05:12:02;;;;;;;1.57;1.50;;;7.90;97.30;;;;;;4916149;29;20210;-85
2023/09/25 05:17:01;;;;;;;1.53;1.43;;;7.90;97.30;;;;;;5002056;28;21072;-87
2023/09/25 05:19:27;;;;;;;1.47;1.30;;;7.90;97.30;;;;;;5007430;28;20425;-85
2023/09/25 05:21:52;;;;;;;4.03;1.80;;;7.90;97.30;;;;;;5002811;28;20231;-87
2023/09/25 05:24:18;;;;;;;1.37;1.30;;;7.90;97.30;;;;;;5004036;28;20178;-86
2023/09/25 05:26:44;;;;;;;2.00;1.23;;;7.90;97.30;;;;;;4995618;28;20201;-86
2023/09/25 05:29:09;;;;;;;3.63;1.80;;;7.90;97.30;;;;;;5000058;28;20201;-86
2023/09/25 05:31:35;;;;;;;4.73;2.57;;;7.90;97.30;;;;;;4999484;28;20433;-86
2023/09/25 05:34:03;;;;;;;1.30;1.20;;;7.90;97.30;;;;;;5005506;28;20189;-86
2023/09/25 05:36:29;;;;;;;3.17;2.97;;;7.90;97.30;;;;;;4999382;28;20201;-87
2023/09/25 05:38:55;;;;;;;2.30;2.13;;;7.90;97.30;;;;;;5005161;28;20516;-86
2023/09/25 05:41:21;;;;;;;2.27;1.63;;;7.90;97.30;;;;;;4999225;28;20679;-87
2023/09/25 05:43:46;;;;;;;2.40;1.83;;;7.90;97.30;;;;;;4998049;28;20487;-86
2023/09/25 05:46:12;;;;;;;1.80;1.70;;;7.90;97.30;;;;;;4995170;28;20208;-86
2023/09/25 05:48:39;;;;;;;2.73;2.23;;;7.90;97.30;;;;;;4995977;28;20240;-86
2023/09/25 05:51:04;;;;;;;1.50;1.40;;;7.90;97.30;;;;;;5004505;28;20296;-85
2023/09/25 05:53:30;;;;;;;6.83;2.53;;;8.00;97.30;;;;;;4993397;28;20803;-86
2023/09/25 05:55:55;;;;;;;1.53;1.43;;;8.00;97.30;;;;;;4994494;28;20201;-86
2023/09/25 05:58:21;;;;;;;2.40;2.00;;;8.00;97.30;;;;;;4996982;28;20189;-86
2023/09/25 06:00:47;;;;;;;1.73;1.63;;;8.10;97.30;;;;;;4994921;28;20182;-86
2023/09/25 06:03:13;;;;;;;2.07;1.93;;;8.10;97.30;;;;;;5005758;28;20208;-84
2023/09/25 06:05:40;;;;;;;1.70;1.60;;;8.20;97.30;;;;;;5003729;28;20445;-85
2023/09/25 06:08:06;;;;;;;1.77;1.60;;;8.20;97.30;;;;;;5011783;28;20522;-86
2023/09/25 06:10:32;;;;;;;2.20;1.93;;;8.20;97.30;;;;;;4995344;28;20926;-85
2023/09/25 06:12:59;;;;;;;1.50;1.40;;;8.30;97.30;;;;;;5009591;28;20653;-84
2023/09/25 06:15:25;;;;;;;1.70;1.53;;;8.30;97.30;;;;;;5000559;28;20554;-85
2023/09/25 06:17:51;;;;;;;2.43;2.23;;;8.40;97.30;;;;;;5000410;28;20845;-85
2023/09/25 06:20:17;;;;;;;2.23;2.03;;;8.40;97.30;;;;;;4999516;28;20439;-86
2023/09/25 06:22:44;;;;;;;1.93;1.30;;;8.50;97.30;;;;;;4996711;28;20239;-85
2023/09/25 06:25:16;;;;;;;2.07;1.90;;;8.60;97.30;;;;;;4997357;28;20228;-87
2023/09/25 06:27:45;;;;;;;1.30;1.20;;;8.70;97.30;;;;;;5001534;28;20420;-86
2023/09/25 06:30:14;;;;;;;1.27;1.20;;;8.80;97.30;;;;;;4992385;28;20433;-86
2023/09/25 06:32:39;;;;;;;2.33;1.87;;;8.90;97.30;;;;;;4996900;28;20425;-86
2023/09/25 06:35:08;;;;;;;3.20;2.93;;;9.00;97.30;;;;;;5003450;28;20987;-87
2023/09/25 06:37:34;;;;;;;2.03;1.57;;;9.00;97.30;;;;;;4997648;28;20185;-86
2023/09/25 06:40:00;;;;;;;1.40;1.30;;;9.10;97.30;;;;;;4994527;28;20417;-86
2023/09/25 06:42:26;;;;;;;2.67;2.47;;;9.20;97.30;;;;;;4999034;28;20177;-86
2023/09/25 06:44:52;;;;;;;2.23;2.07;;;9.30;97.30;;;;;;4997316;28;20418;-86
2023/09/25 06:47:17;;;;;;;4.27;3.57;;;9.40;97.30;;;;;;4995594;28;20840;-86
2023/09/25 06:49:43;;;;;;;2.30;2.10;;;9.50;97.30;;;;;;4993937;28;20237;-85
2023/09/25 06:52:08;;;;;;;8.33;3.23;;;9.60;97.30;;;;;;4999484;28;20201;-87
2023/09/25 06:54:34;;;;;;;3.07;2.93;;;9.70;97.30;;;;;;5001008;28;20177;-86
2023/09/25 06:57:00;;;;;;;3.90;1.87;;;9.80;97.30;;;;;;4999242;28;20662;-87
2023/09/25 06:59:26;;;;;;;2.60;2.27;;;9.90;97.30;;;;;;4998370;28;20181;-86
2023/09/25 07:01:52;;;;;;;4.63;2.40;;;10.00;97.30;;;;;;4998142;28;20424;-86
2023/09/25 07:04:19;;;;;;;1.90;1.80;;;10.10;97.30;;;;;;4997745;28;20420;-86
2023/09/25 07:06:45;;;;;;;3.73;1.97;;;10.20;97.30;;;;;;5003083;28;20202;-86
2023/09/25 07:09:14;;;;;;;1.60;1.50;;;10.30;97.30;;;;;;4993971;28;20550;-86
2023/09/25 07:11:39;;;;;;;1.57;1.47;;;10.40;97.30;;;;;;4998517;28;20453;-86
2023/09/25 07:14:05;;;;;;;2.73;1.40;;;10.50;97.30;;;;;;4994605;28;20448;-85
2023/09/25 07:16:31;;;;;;;1.70;1.60;;;10.60;97.30;;;;;;5004452;28;20702;-87
2023/09/25 07:18:57;;;;;;;2.83;2.60;;;10.70;97.30;;;;;;4994456;28;20429;-85
2023/09/25 07:21:23;;;;;;;2.60;1.90;;;10.80;97.30;;;;;;4994597;28;20684;-86
2023/09/25 07:23:48;;;;;;;2.40;2.20;;;10.90;97.30;;;;;;4999346;28;20190;-86
2023/09/25 07:26:15;;;;;;;4.57;1.40;;;11.00;97.30;;;;;;4997344;28;20202;-87
2023/09/25 07:28:41;;;;;;;3.20;3.00;;;11.20;97.30;;;;;;5009462;28;20300;-86
2023/09/25 07:31:07;;;;;;;2.90;2.70;;;11.30;97.30;;;;;;5000742;28;20944;-86
2023/09/25 07:33:33;;;;;;;2.20;2.00;;;11.40;97.30;;;;;;4998746;28;20192;-89
2023/09/25 07:35:59;;;;;;;2.30;2.10;;;11.50;97.30;;;;;;5007080;28;20201;-88
2023/09/25 07:38:25;;;;;;;1.63;1.30;;;11.60;97.30;;;;;;4995160;28;20429;-88
2023/09/25 07:40:50;;;;;;;2.50;2.30;;;11.70;97.30;;;;;;5000017;28;20237;-87
2023/09/25 07:43:19;;;;;;;3.00;2.80;;;11.80;97.30;;;;;;4995149;28;20412;-87
2023/09/25 07:45:48;;;;;;;3.17;2.13;;;11.90;97.30;;;;;;4999691;28;20208;-88
2023/09/25 07:48:16;;;;;;;1.77;1.70;;;12.00;97.30;;;;;;5010636;28;20464;-87
2023/09/25 07:50:48;;;;;;;3.10;2.17;;;12.10;97.30;;;;;;5004919;28;20910;-86
2023/09/25 07:53:16;;;;;;;2.27;2.07;;;12.20;97.30;;;;;;4997920;28;20428;-87
2023/09/25 07:55:42;;;;;;;14.10;2.50;;;12.30;97.30;;;;;;4996382;28;20441;-88
2023/09/25 07:58:11;;;;;;;5.20;3.40;;;12.40;97.30;;;;;;4999042;28;20417;-88
2023/09/25 08:00:39;;;;;;;2.00;1.90;;;12.50;97.30;;;;;;5007981;28;20602;-85
2023/09/25 08:03:06;;;;;;;3.13;2.10;;;12.60;97.30;;;;;;4995030;28;20919;-87
2023/09/25 08:05:34;;;;;;;2.90;2.13;;;12.70;97.30;;;;;;5004226;28;20456;-87
2023/09/25 08:07:59;;;;;;;2.27;2.07;;;12.90;97.30;;;;;;4997672;28;20490;-86
2023/09/25 08:10:25;;;;;;;2.70;2.43;;;13.00;97.30;;;;;;4996784;28;20421;-88
2023/09/25 08:12:50;;;;;;;3.90;1.80;;;13.10;97.30;;;;;;5000615;28;20196;-87
2023/09/25 08:15:16;;;;;;;10.83;4.00;;;13.30;97.30;;;;;;5006973;28;20681;-87
2023/09/25 08:17:43;;;;;;;3.30;2.20;;;13.40;97.30;;;;;;4993657;28;20664;-86
2023/09/25 08:20:20;;;;;;;1.77;1.77;;;13.60;97.30;;;;;;4990168;28;20178;-88
2023/09/25 08:22:46;;;;;;;7.63;1.70;;;13.70;97.30;;;;;;4993643;28;20452;-87
2023/09/25 08:25:12;;;;;;;3.23;3.03;;;13.80;97.30;;;;;;4996319;28;20441;-87
2023/09/25 08:27:38;;;;;;;2.50;2.30;;;13.90;97.30;;;;;;5002011;28;20455;-87
2023/09/25 08:30:05;;;;;;;5.73;2.87;;;14.00;97.30;;;;;;5002851;28;20184;-89
2023/09/25 08:32:31;;;;;;;1.47;1.37;;;14.10;97.30;;;;;;4992961;28;21094;-88
2023/09/25 08:35:00;;;;;;;1.67;1.57;;;14.30;97.30;;;;;;4994598;28;20510;-88
2023/09/25 08:37:25;;;;;;;4.40;2.27;;;14.40;97.30;;;;;;4995969;28;20224;-87
2023/09/25 08:39:55;;;;;;;1.83;1.73;;;14.50;97.30;;;;;;4991162;28;21006;-87
2023/09/25 08:42:22;;;;;;;4.53;2.63;;;14.50;97.30;;;;;;4989288;28;20289;-87
2023/09/25 08:44:52;;;;;;;2.47;1.43;;;14.60;97.30;;;;;;5000631;28;20449;-87
2023/09/25 08:47:22;;;;;;;1.40;1.30;;;14.70;97.30;;;;;;5002802;28;20479;-87
2023/09/25 08:49:52;;;;;;;1.93;1.40;;;14.80;97.30;;;;;;4999639;28;20468;-88
2023/09/25 08:52:20;;;;;;;2.90;1.43;;;14.90;97.30;;;;;;4994799;28;20432;-87
2023/09/25 08:54:46;;;;;;;1.63;1.53;;;15.00;97.30;;;;;;4995429;28;20923;-88
2023/09/25 08:57:12;;;;;;;1.10;1.00;;;15.10;97.30;;;;;;4989581;28;20476;-87
2023/09/25 08:59:39;;;;;;;2.47;1.83;;;15.20;97.30;;;;;;4998867;28;20417;-86
2023/09/25 09:02:08;;;;;;;2.40;2.07;;;15.30;97.30;;;;;;4995144;28;20417;-87
2023/09/25 09:04:35;;;;;;;2.20;2.00;;;15.40;97.30;;;;;;4996704;28;20431;-87
2023/09/25 09:07:01;;;;;;;1.40;1.30;;;15.50;97.30;;;;;;4997749;28;20419;-90
2023/09/25 09:09:26;;;;;;;2.23;1.53;;;15.60;97.30;;;;;;4997791;28;20458;-88
2023/09/25 09:11:52;;;;;;;1.83;1.73;;;15.70;97.30;;;;;;4994651;28;20201;-90
2023/09/25 09:14:39;;;;;;;1.23;1.13;;;15.80;97.30;;;;;;4991830;28;20182;-89
2023/09/25 09:17:06;;;;;;;2.00;1.40;;;15.90;97.30;;;;;;4996577;28;20711;-86
2023/09/25 09:19:36;;;;;;;1.40;1.30;;;16.10;97.30;;;;;;5005133;28;20428;-89
2023/09/25 09:22:06;;;;;;;2.33;1.10;;;16.20;97.30;;;;;;4997349;28;20935;-87
2023/09/25 09:24:35;;;;;;;1.17;1.13;;;16.30;97.30;;;;;;5000191;28;20954;-87
2023/09/25 09:27:01;;;;;;;1.30;1.20;;;16.40;97.30;;;;;;4993636;28;20425;-87
2023/09/25 09:29:27;;;;;;;1.50;1.40;;;16.50;97.30;;;;;;5000864;28;20562;-87
2023/09/25 09:31:56;;;;;;;2.57;1.97;;;16.60;97.30;;;;;;5001921;28;20421;-87
2023/09/25 09:34:25;;;;;;;1.80;1.60;;;16.70;97.30;;;;;;5003588;28;20424;-88
2023/09/25 09:36:51;;;;;;;2.40;2.20;;;16.80;97.30;;;;;;5001549;28;20477;-88
2023/09/25 09:39:21;;;;;;;1.87;1.83;;;17.00;97.30;;;;;;5008452;28;20416;-87
2023/09/25 09:41:50;;;;;;;2.03;1.93;;;17.10;97.30;;;;;;5000265;28;20433;-87
2023/09/25 09:44:16;;;;;;;1.47;1.33;;;17.20;97.30;;;;;;4998031;28;20771;-87
2023/09/25 09:46:44;;;;;;;1.83;1.33;;;17.20;97.30;;;;;;4999346;28;20453;-86
2023/09/25 09:49:14;;;;;;;1.47;1.27;;;17.40;97.30;;;;;;5000189;28;20212;-88
2023/09/25 09:51:43;;;;;;;0.93;0.87;;;17.40;97.30;;;;;;5002296;28;20414;-88
2023/09/25 09:54:13;;;;;;;1.03;0.93;;;17.60;97.30;;;;;;5000637;28;20416;-87
2023/09/25 09:56:39;;;;;;;1.70;1.03;;;17.70;97.30;;;;;;4999386;28;20440;-87
2023/09/25 09:59:06;;;;;;;2.23;2.03;;;17.80;97.20;;;;;;4998377;28;20420;-88
2023/09/25 10:01:33;;;;;;;1.00;0.90;;;17.90;97.10;;;;;;5002306;28;20874;-87
2023/09/25 10:04:03;;;;;;;1.80;1.40;;;18.00;96.90;;;;;;4998734;28;20945;-89
2023/09/25 10:06:29;;;;;;;5.40;1.93;;;18.00;96.40;;;;;;5000063;28;20449;-86
2023/09/25 10:09:00;;;;;;;2.13;1.97;;;18.20;96.40;;;;;;5005502;28;20460;-87
2023/09/25 10:11:25;;;;;;;1.53;1.17;;;18.30;96.20;;;;;;5000414;28;21004;-87
2023/09/25 10:13:55;;;;;;;1.37;1.27;;;18.30;95.50;;;;;;5003779;28;20421;-87
2023/09/25 10:16:20;;;;;;;0.90;0.80;;;18.40;95.60;;;;;;4997317;28;20217;-89
2023/09/25 10:18:51;;;;;;;2.07;1.20;;;18.40;96.00;;;;;;5000188;28;20439;-86
2023/09/25 10:21:17;;;;;;;1.87;1.57;;;18.60;95.50;;;;;;4995972;28;20675;-88
2023/09/25 10:23:54;;;;;;;1.53;1.43;;;18.80;94.60;;;;;;4995530;28;20475;-88
2023/09/25 10:26:24;;;;;;;1.30;1.20;;;18.90;94.50;;;;;;4995401;28;20204;-86
2023/09/25 10:29:12;;;;;;;2.53;1.90;;;19.00;94.40;;;;;;4993689;28;20461;-88
2023/09/25 10:31:38;;;;;;;1.00;0.90;;;19.10;93.90;;;;;;4991359;28;20464;-88
2023/09/25 10:34:08;;;;;;;2.10;1.50;;;19.20;93.90;;;;;;4995264;28;20413;-88
2023/09/25 10:36:40;;;;;;;1.30;1.10;;;19.30;93.90;;;;;;4999333;28;20255;-89
2023/09/25 10:39:13;;;;;;;1.80;1.70;;;19.40;93.70;;;;;;4999399;28;20423;-87
2023/09/25 10:41:38;;;;;;;8.50;1.40;;;19.50;93.90;;;;;;5004369;28;20926;-87
2023/09/25 10:44:05;;;;;;;1.63;1.57;;;19.60;93.40;;;;;;4993120;28;20745;-87
2023/09/25 10:46:31;;;;;;;1.50;1.40;;;19.70;93.20;;;;;;4995772;28;20213;-88
2023/09/25 10:48:57;;;;;;;1.63;1.17;;;19.70;93.00;;;;;;5005625;28;20470;-88
2023/09/25 10:51:25;;;;;;;3.07;1.53;;;19.80;92.40;;;;;;5002416;28;20174;-88
2023/09/25 10:53:51;;;;;;;1.20;1.20;;;19.90;91.70;;;;;;5002952;28;20957;-88
2023/09/25 10:56:16;;;;;;;2.40;1.90;;;20.00;92.00;;;;;;5002186;28;20433;-88
2023/09/25 10:58:50;;;;;;;1.50;1.50;;;20.10;92.10;;;;;;4998816;28;20700;-87
2023/09/25 11:01:23;;;;;;;2.00;1.33;;;20.30;92.40;;;;;;5001636;28;20659;-88
2023/09/25 11:03:48;;;;;;;1.00;0.97;;;20.40;91.60;;;;;;5003934;28;20427;-88
2023/09/25 11:06:14;;;;;;;1.20;1.20;;;20.50;91.20;;;;;;4996797;28;20441;-90
2023/09/25 11:08:39;;;;;;;1.43;1.40;;;20.50;91.50;;;;;;4996216;28;20205;-88
2023/09/25 11:11:06;;;;;;;1.30;1.20;;;20.60;91.80;;;;;;4990904;28;20181;-88
2023/09/25 11:13:32;;;;;;;1.57;1.47;;;20.70;91.60;;;;;;4993695;28;20640;-89
2023/09/25 11:16:00;;;;;;;2.03;1.30;;;20.80;91.50;;;;;;4996791;28;20461;-90
2023/09/25 11:18:26;;;;;;;1.67;1.63;;;20.90;90.60;;;;;;4995638;28;20189;-89
2023/09/25 11:20:51;;;;;;;1.40;1.30;;;21.10;90.40;;;;;;4998459;28;20512;-87
2023/09/25 11:23:17;;;;;;;1.67;1.57;;;21.10;90.30;;;;;;5005902;28;20221;-88
2023/09/25 11:25:48;;;;;;;1.30;1.20;;;21.20;90.30;;;;;;5003353;28;20654;-87
2023/09/25 11:28:20;;;;;;;1.23;1.23;;;21.30;89.00;;;;;;4994495;28;20567;-89
2023/09/25 11:30:46;;;;;;;1.40;1.00;;;21.40;89.00;;;;;;4998951;28;20499;-88
2023/09/25 11:33:15;;;;;;;1.53;1.00;;;21.50;88.50;;;;;;4994326;28;20962;-89
2023/09/25 11:35:41;;;;;;;1.20;1.10;;;21.60;86.70;;;;;;5000092;28;20444;-88
2023/09/25 11:38:15;;;;;;;1.03;1.00;;;21.60;87.50;;;;;;4999382;28;20950;-88
2023/09/25 11:40:41;;;;;;;2.77;1.37;;;21.70;88.40;;;;;;4994809;28;20466;-90
2023/09/25 11:43:07;;;;;;;1.37;1.27;;;21.80;87.10;;;;;;4995948;28;20456;-90
2023/09/25 11:45:33;;;;;;;1.57;1.53;;;21.90;87.20;;;;;;5001918;28;20208;-89
2023/09/25 11:48:00;;;;;;;3.00;1.97;;;22.00;87.20;;;;;;4997746;28;20188;-90
2023/09/25 11:50:25;;;;;;;1.13;1.03;;;22.00;87.50;;;;;;4996241;28;20456;-89
2023/09/25 11:52:52;;;;;;;1.20;1.10;;;22.10;87.40;;;;;;4997798;28;20457;-89
2023/09/25 11:55:19;;;;;;;2.13;1.97;;;22.20;86.80;;;;;;4997566;28;20264;-90
2023/09/25 11:57:45;;;;;;;1.10;1.00;;;22.30;86.30;;;;;;4997373;28;20476;-89
2023/09/25 12:00:15;;;;;;;2.27;2.07;;;22.40;86.40;;;;;;4998724;28;20456;-89
2023/09/25 12:02:41;;;;;;;0.90;0.90;;;22.50;86.40;;;;;;4999846;28;20417;-90
2023/09/25 12:05:08;;;;;;;1.00;0.90;;;22.50;85.80;;;;;;4999380;28;20440;-90
2023/09/25 12:07:36;;;;;;;1.67;1.63;;;22.60;85.30;;;;;;5002411;28;20440;-89
2023/09/25 12:10:06;;;;;;;1.47;1.23;;;22.70;86.50;;;;;;4997411;28;20487;-89
2023/09/25 12:12:36;;;;;;;0.90;0.80;;;22.80;86.00;;;;;;5002477;28;20426;-90
2023/09/25 12:15:03;;;;;;;1.00;0.90;;;22.90;86.00;;;;;;4998357;28;20472;-89
2023/09/25 12:17:32;;;;;;;1.93;1.23;;;23.00;86.00;;;;;;5000746;28;20538;-88
2023/09/25 12:20:00;;;;;;;1.00;0.97;;;23.00;84.90;;;;;;5000116;28;20532;-89
2023/09/25 12:22:25;;;;;;;1.10;1.00;;;23.10;84.70;;;;;;5002609;28;20420;-88
2023/09/25 12:24:51;;;;;;;1.20;1.10;;;23.20;84.50;;;;;;4998870;28;20448;-89
2023/09/25 12:27:17;;;;;;;1.73;1.13;;;23.20;83.00;;;;;;4998531;28;20178;-88
2023/09/25 12:29:44;;;;;;;1.33;1.23;;;23.20;83.70;;;;;;4993877;28;20596;-88
2023/09/25 12:32:11;;;;;;;1.27;1.23;;;23.20;84.60;;;;;;5000428;28;20182;-88
2023/09/25 12:34:37;;;;;;;0.87;0.83;;;23.20;84.10;;;;;;4992146;28;20421;-88
2023/09/25 12:37:03;;;;;;;1.23;1.17;;;23.20;83.50;;;;;;5008088;28;20415;-88
2023/09/25 12:39:28;;;;;;;0.97;0.90;;;23.20;84.30;;;;;;4998329;28;20420;-88
2023/09/25 12:41:54;;;;;;;1.57;1.10;;;23.30;85.00;;;;;;4999546;28;20272;-88
2023/09/25 12:44:20;;;;;;;1.27;1.10;;;23.40;84.40;;;;;;4997797;28;20181;-88
2023/09/25 12:46:46;;;;;;;1.10;1.03;;;23.40;84.60;;;;;;4994495;28;20296;-87
2023/09/25 12:49:11;;;;;;;1.00;0.90;;;23.50;85.50;;;;;;4989812;28;21413;-88
2023/09/25 12:51:37;;;;;;;1.17;0.90;;;23.60;83.30;;;;;;4991991;28;20173;-87
2023/09/25 12:54:03;;;;;;;2.63;1.80;;;23.70;83.00;;;;;;5009568;28;20672;-88
2023/09/25 12:56:29;;;;;;;1.30;1.20;;;23.80;83.90;;;;;;4994021;28;20223;-88
2023/09/25 12:58:54;;;;;;;1.30;1.13;;;24.00;82.30;;;;;;4995875;28;20230;-88
2023/09/25 13:01:21;;;;;;;1.47;1.17;;;24.10;83.00;;;;;;4994820;28;20954;-88
2023/09/25 13:03:46;;;;;;;1.73;1.30;;;24.20;82.30;;;;;;4995034;28;20684;-88
2023/09/25 13:06:12;;;;;;;1.67;1.47;;;24.30;82.20;;;;;;4998758;28;20472;-85
2023/09/25 13:08:37;;;;;;;1.00;0.90;;;24.20;82.20;;;;;;4998222;28;20680;-86
2023/09/25 13:11:03;;;;;;;1.20;1.10;;;24.30;81.10;;;;;;4992554;28;20178;-88
2023/09/25 13:13:28;;;;;;;1.90;1.20;;;24.40;81.50;;;;;;4995277;28;20225;-87
2023/09/25 13:15:54;;;;;;;1.33;1.10;;;24.40;81.50;;;;;;5004496;28;20256;-87
2023/09/25 13:18:20;;;;;;;1.10;1.10;;;24.50;81.60;;;;;;4994974;28;20186;-89
2023/09/25 13:20:45;;;;;;;1.37;1.20;;;24.60;81.90;;;;;;5017405;28;20200;-87
2023/09/25 13:23:11;;;;;;;1.40;1.30;;;24.70;81.80;;;;;;4993260;28;20218;-88
2023/09/25 13:25:37;;;;;;;1.33;1.23;;;24.80;82.20;;;;;;4996863;28;20733;-86
2023/09/25 13:28:04;;;;;;;1.50;1.40;;;24.80;80.40;;;;;;4999441;28;20208;-87
2023/09/25 13:30:30;;;;;;;0.80;0.70;;;24.80;80.50;;;;;;4996555;28;20417;-87
2023/09/25 13:35:28;;;;;;;0.93;0.90;;;24.90;80.90;;;;;;4990382;28;20213;-65
2023/09/25 13:37:54;;;;;;;1.30;1.20;;;25.00;80.20;;;;;;4984440;28;20417;-65
2023/09/25 13:40:21;;;;;;;1.90;1.70;;;25.10;80.70;;;;;;5009280;28;20205;-64
2023/09/25 13:42:46;;;;;;;1.03;0.93;;;25.10;80.40;;;;;;5011906;28;20212;-65
2023/09/25 13:45:13;;;;;;;1.00;0.90;;;25.10;80.50;;;;;;5001156;28;20459;-65
2023/09/25 13:47:42;;;;;;;1.13;1.03;;;25.20;80.20;;;;;;5002527;28;20177;-65
2023/09/25 13:50:10;;;;;;;0.80;0.70;;;25.20;80.00;;;;;;5003244;28;20464;-65
2023/09/25 13:52:36;;;;;;;1.67;1.20;;;25.20;80.20;;;;;;5009088;28;20463;-65
2023/09/25 13:55:02;;;;;;;1.13;1.10;;;25.20;80.70;;;;;;5009550;28;20452;-65
2023/09/25 13:57:27;;;;;;;1.20;1.10;;;25.20;80.00;;;;;;5011718;28;20609;-65
2023/09/25 13:59:53;;;;;;;1.17;1.07;;;25.20;80.40;;;;;;5009427;28;20904;-65
2023/09/25 14:02:19;;;;;;;0.90;0.80;;;25.30;79.30;;;;;;5008070;28;20686;-66
2023/09/25 14:04:44;;;;;;;1.07;0.97;;;25.40;79.80;;;;;;5003543;28;20251;-66
2023/09/25 14:07:10;;;;;;;1.00;0.90;;;25.60;80.00;;;;;;5008906;28;20272;-65
2023/09/25 14:09:35;;;;;;;1.10;1.00;;;25.70;80.50;;;;;;5004913;28;20681;-65
2023/09/25 14:12:01;;;;;;;1.53;1.30;;;25.80;80.40;;;;;;5012571;28;20855;-65
2023/09/25 14:14:40;;;;;;;1.00;0.90;;;25.80;79.10;;;;;;5012104;28;20564;-65
2023/09/25 14:17:06;;;;;;;1.20;1.10;;;25.80;78.60;;;;;;5010823;28;20268;-66
2023/09/25 14:19:31;;;;;;;1.07;1.00;;;25.90;78.90;;;;;;4998862;28;20518;-66
2023/09/25 14:21:57;;;;;;;6.77;1.70;;;26.00;79.00;;;;;;5006759;28;20209;-66
2023/09/25 14:24:23;;;;;;;1.63;1.00;;;25.90;78.80;;;;;;5004576;28;20246;-66
2023/09/25 14:26:49;;;;;;;1.20;1.10;;;25.90;78.70;;;;;;5007701;28;20189;-66
2023/09/25 14:29:14;;;;;;;1.07;0.97;;;25.90;79.20;;;;;;5008645;28;20209;-65
2023/09/25 14:31:40;;;;;;;2.00;1.63;;;25.80;79.30;;;;;;5008093;28;20261;-65
2023/09/25 14:34:06;;;;;;;1.10;1.00;;;25.80;78.70;;;;;;5011518;28;20227;-66
2023/09/25 14:36:31;;;;;;;1.20;1.10;;;25.70;78.80;;;;;;5010680;28;20188;-66
2023/09/25 14:38:57;;;;;;;1.10;0.87;;;25.70;79.40;;;;;;5010768;28;20196;-66
2023/09/25 14:41:23;;;;;;;1.37;1.27;;;25.70;78.90;;;;;;5012132;28;20218;-67
2023/09/25 14:43:48;;;;;;;1.10;1.00;;;25.60;79.30;;;;;;5010257;28;20185;-65
2023/09/25 14:46:14;;;;;;;1.20;1.10;;;25.40;79.40;;;;;;5001993;28;20705;-65
2023/09/25 14:48:45;;;;;;;0.77;0.77;;;25.20;80.40;;;;;;5008321;28;20683;-65
2023/09/25 14:51:10;;;;;;;0.83;0.80;;;25.10;80.00;;;;;;5010011;28;20304;-65
2023/09/25 14:53:36;;;;;;;0.90;0.80;;;25.20;80.40;;;;;;5011360;28;20524;-65
2023/09/25 14:56:01;;;;;;;2.53;1.30;;;25.20;80.30;;;;;;5010688;28;20716;-65
2023/09/25 14:58:27;;;;;;;2.10;1.00;;;25.20;80.20;;;;;;5009271;28;20193;-66
2023/09/25 15:00:57;;;;;;;1.17;1.10;;;25.20;80.30;;;;;;5011033;28;20209;-66
2023/09/25 15:03:22;;;;;;;3.00;1.33;;;25.20;80.20;;;;;;5009693;28;20195;-65
2023/09/25 15:05:49;;;;;;;1.00;0.83;;;25.10;80.20;;;;;;5008887;28;20420;-65
2023/09/25 15:08:15;;;;;;;1.33;1.13;;;25.20;80.40;;;;;;5001876;28;20236;-65
2023/09/25 15:10:41;;;;;;;1.00;0.90;;;25.20;80.00;;;;;;5010319;28;21249;-66
2023/09/25 15:13:07;;;;;;;2.90;2.17;;;25.20;80.20;;;;;;5009563;28;20177;-65
2023/09/25 15:15:32;;;;;;;1.43;1.37;;;25.20;80.40;;;;;;5010694;28;20196;-65
2023/09/25 15:17:58;;;;;;;1.13;1.00;;;25.10;80.40;;;;;;5007186;28;20189;-65
2023/09/25 15:20:25;;;;;;;1.10;1.00;;;25.00;80.60;;;;;;5008220;28;20682;-65
2023/09/25 15:22:51;;;;;;;0.90;0.80;;;25.00;80.80;;;;;;5005249;28;20186;-65
2023/09/25 15:25:16;;;;;;;1.17;1.07;;;25.10;80.90;;;;;;5008018;28;20498;-65
2023/09/25 15:27:43;;;;;;;1.63;1.53;;;25.10;81.00;;;;;;5008088;28;21139;-65
2023/09/25 15:30:09;;;;;;;0.97;0.90;;;25.20;80.80;;;;;;5009100;28;20232;-65
2023/09/25 15:32:36;;;;;;;2.70;1.60;;;25.20;80.50;;;;;;5006880;28;20920;-66
2023/09/25 15:35:03;;;;;;;1.00;0.90;;;25.10;80.40;;;;;;5007609;28;20484;-66
2023/09/25 15:37:32;;;;;;;1.47;1.20;;;24.90;80.30;;;;;;5007487;28;20451;-65
2023/09/25 15:40:01;;;;;;;1.67;1.10;;;24.80;80.50;;;;;;5008970;28;20872;-66
2023/09/25 15:42:27;;;;;;;1.17;1.07;;;24.80;80.80;;;;;;5007167;28;20448;-66
2023/09/25 15:44:53;;;;;;;1.07;1.03;;;24.70;80.80;;;;;;5008569;28;20420;-66
2023/09/25 15:47:18;;;;;;;1.30;1.00;;;24.70;81.10;;;;;;5006540;28;20940;-66
2023/09/25 15:49:48;;;;;;;1.67;0.93;;;24.80;81.10;;;;;;5006724;28;20697;-66
2023/09/25 15:52:14;;;;;;;1.13;1.10;;;24.80;80.90;;;;;;5005806;28;20664;-65
2023/09/25 15:54:42;;;;;;;1.40;1.17;;;24.80;81.20;;;;;;5008387;28;20427;-65
2023/09/25 15:57:07;;;;;;;1.33;1.10;;;24.80;81.30;;;;;;5008827;28;20216;-66
2023/09/25 15:59:37;;;;;;;2.10;1.63;;;24.70;81.80;;;;;;5008091;28;20448;-66
2023/09/25 16:02:03;;;;;;;1.10;1.00;;;24.60;81.70;;;;;;5004142;28;20283;-67
2023/09/25 16:04:28;;;;;;;1.00;0.90;;;24.30;82.40;;;;;;5008670;28;20562;-67
2023/09/25 16:06:54;;;;;;;1.47;1.40;;;24.10;84.00;;;;;;5007330;28;20514;-67
2023/09/25 16:09:20;;;;;;;1.00;1.00;;;23.80;84.90;;;;;;5008706;28;20213;-67
2023/09/25 16:11:45;;;;;;;1.00;0.90;;;23.50;85.70;;;;;;5006954;28;20216;-67
2023/09/25 16:14:11;;;;;;;1.20;1.10;;;23.30;86.00;;;;;;5008808;28;20573;-67
2023/09/25 16:16:36;;;;;;;1.57;1.13;;;23.00;85.90;;;;;;5008667;28;20208;-67
2023/09/25 16:19:02;;;;;;;1.87;1.30;;;22.80;86.40;;;;;;5007204;28;20234;-67
2023/09/25 16:21:28;;;;;;;3.63;1.73;;;22.60;86.40;;;;;;5007215;28;20229;-67
2023/09/25 16:23:53;;;;;;;0.97;0.93;;;22.50;86.60;;;;;;5007397;28;20240;-67
2023/09/25 16:26:19;;;;;;;1.80;1.60;;;22.30;87.10;;;;;;4998446;28;20184;-65
2023/09/25 16:28:45;;;;;;;1.30;1.20;;;22.10;87.30;;;;;;4999117;28;20205;-66
2023/09/25 16:31:10;;;;;;;1.83;1.30;;;22.00;87.70;;;;;;5004157;28;20205;-65
2023/09/25 16:33:36;;;;;;;1.43;1.13;;;21.90;88.00;;;;;;5005530;28;20259;-65
2023/09/25 16:36:02;;;;;;;0.90;0.90;;;21.80;88.70;;;;;;5007216;28;20185;-65
2023/09/25 16:38:27;;;;;;;1.13;1.03;;;21.70;88.90;;;;;;5007143;28;20846;-65
2023/09/25 16:40:53;;;;;;;1.00;0.90;;;21.60;89.00;;;;;;5006670;28;20303;-66
2023/09/25 16:43:18;;;;;;;1.30;1.20;;;21.50;89.60;;;;;;5004423;28;20223;-66
2023/09/25 16:45:44;;;;;;;1.27;1.17;;;21.30;90.10;;;;;;5007316;28;20193;-65
2023/09/25 16:48:09;;;;;;;1.20;1.10;;;21.20;91.00;;;;;;5008914;28;20188;-66
2023/09/25 16:50:35;;;;;;;2.50;1.83;;;21.00;91.30;;;;;;5008050;28;20208;-65